sensor_id;sensor_type;location;lat;lon;timestamp;pressure;altitude;pressure_sealevel;temperature;humidity
76553;BME280;65395;53.168;18.156;2024-01-10T00:00:26;102958.85;;;-5.39;75.37
76553;BME280;65395;53.168;18.156;2024-01-10T00:03:13;102956.98;;;-5.35;75.40
76553;BME280;65395;53.168;18.156;2024-01-10T00:05:39;102952.44;;;-5.31;75.48
76553;BME280;65395;53.168;18.156;2024-01-10T00:08:06;102950.62;;;-5.28;75.51
76553;BME280;65395;53.168;18.156;2024-01-10T00:10:33;102951.73;;;-5.23;75.64
76553;BME280;65395;53.168;18.156;2024-01-10T00:13:00;102949.71;;;-5.18;75.68
76553;BME280;65395;53.168;18.156;2024-01-10T00:15:27;102950.61;;;-5.14;75.83
76553;BME280;65395;53.168;18.156;2024-01-10T00:17:54;102944.25;;;-5.09;75.95
76553;BME280;65395;53.168;18.156;2024-01-10T00:20:21;102932.63;;;-5.08;75.94
76553;BME280;65395;53.168;18.156;2024-01-10T00:22:48;102929.55;;;-5.04;75.94
76553;BME280;65395;53.168;18.156;2024-01-10T00:25:14;102926.15;;;-5.02;75.99
76553;BME280;65395;53.168;18.156;2024-01-10T00:27:41;102924.83;;;-5.01;76.08
76553;BME280;65395;53.168;18.156;2024-01-10T00:30:08;102925.44;;;-4.98;75.95
76553;BME280;65395;53.168;18.156;2024-01-10T00:32:35;102920.52;;;-4.96;75.76
76553;BME280;65395;53.168;18.156;2024-01-10T00:35:02;102918.25;;;-4.96;75.64
76553;BME280;65395;53.168;18.156;2024-01-10T00:37:29;102915.63;;;-4.95;75.76
76553;BME280;65395;53.168;18.156;2024-01-10T00:39:56;102916.88;;;-4.94;75.68
76553;BME280;65395;53.168;18.156;2024-01-10T00:42:23;102908.80;;;-4.92;75.88
76553;BME280;65395;53.168;18.156;2024-01-10T00:44:50;102899.00;;;-4.90;75.87
76553;BME280;65395;53.168;18.156;2024-01-10T00:47:17;102896.35;;;-4.85;75.91
76553;BME280;65395;53.168;18.156;2024-01-10T00:49:44;102896.66;;;-4.80;75.82
76553;BME280;65395;53.168;18.156;2024-01-10T00:52:10;102900.29;;;-4.79;75.74
76553;BME280;65395;53.168;18.156;2024-01-10T00:54:37;102903.27;;;-4.77;75.78
76553;BME280;65395;53.168;18.156;2024-01-10T00:57:04;102905.83;;;-4.75;75.87
76553;BME280;65395;53.168;18.156;2024-01-10T00:59:31;102907.66;;;-4.74;75.87
76553;BME280;65395;53.168;18.156;2024-01-10T01:01:58;102908.60;;;-4.73;75.88
76553;BME280;65395;53.168;18.156;2024-01-10T01:04:25;102913.27;;;-4.74;75.99
76553;BME280;65395;53.168;18.156;2024-01-10T01:06:52;102911.61;;;-4.73;76.16
76553;BME280;65395;53.168;18.156;2024-01-10T01:09:19;102914.56;;;-4.71;76.19
76553;BME280;65395;53.168;18.156;2024-01-10T01:11:45;102912.84;;;-4.69;76.31
76553;BME280;65395;53.168;18.156;2024-01-10T01:14:12;102910.61;;;-4.67;76.31
76553;BME280;65395;53.168;18.156;2024-01-10T01:16:39;102908.27;;;-4.68;76.34
76553;BME280;65395;53.168;18.156;2024-01-10T01:19:06;102905.98;;;-4.67;76.47
76553;BME280;65395;53.168;18.156;2024-01-10T01:21:33;102909.95;;;-4.63;76.45
76553;BME280;65395;53.168;18.156;2024-01-10T01:24:00;102907.58;;;-4.59;76.41
76553;BME280;65395;53.168;18.156;2024-01-10T01:26:27;102903.79;;;-4.57;76.56
76553;BME280;65395;53.168;18.156;2024-01-10T01:28:53;102903.86;;;-4.56;76.66
76553;BME280;65395;53.168;18.156;2024-01-10T01:31:20;102898.89;;;-4.54;76.57
76553;BME280;65395;53.168;18.156;2024-01-10T01:33:47;102895.48;;;-4.52;76.76
76553;BME280;65395;53.168;18.156;2024-01-10T01:36:14;102894.95;;;-4.54;76.78
76553;BME280;65395;53.168;18.156;2024-01-10T01:38:41;102898.61;;;-4.55;76.96
76553;BME280;65395;53.168;18.156;2024-01-10T01:41:08;102899.08;;;-4.54;77.04
76553;BME280;65395;53.168;18.156;2024-01-10T01:43:35;102898.39;;;-4.52;77.13
76553;BME280;65395;53.168;18.156;2024-01-10T01:46:02;102894.86;;;-4.51;77.01
76553;BME280;65395;53.168;18.156;2024-01-10T01:48:30;102890.50;;;-4.50;77.13
76553;BME280;65395;53.168;18.156;2024-01-10T01:51:01;102886.15;;;-4.48;77.36
76553;BME280;65395;53.168;18.156;2024-01-10T01:53:29;102886.57;;;-4.45;77.32
76553;BME280;65395;53.168;18.156;2024-01-10T01:55:57;102880.11;;;-4.44;77.23
76553;BME280;65395;53.168;18.156;2024-01-10T01:58:27;102876.89;;;-4.44;77.36
76553;BME280;65395;53.168;18.156;2024-01-10T02:00:54;102871.25;;;-4.44;77.49
76553;BME280;65395;53.168;18.156;2024-01-10T02:03:21;102865.08;;;-4.46;77.61
76553;BME280;65395;53.168;18.156;2024-01-10T02:05:48;102859.90;;;-4.48;77.76
76553;BME280;65395;53.168;18.156;2024-01-10T02:08:16;102855.64;;;-4.50;77.90
76553;BME280;65395;53.168;18.156;2024-01-10T02:10:43;102852.83;;;-4.49;78.07
76553;BME280;65395;53.168;18.156;2024-01-10T02:13:10;102850.44;;;-4.47;78.23
76553;BME280;65395;53.168;18.156;2024-01-10T02:15:38;102849.88;;;-4.49;78.22
76553;BME280;65395;53.168;18.156;2024-01-10T02:18:05;102854.77;;;-4.48;78.38
76553;BME280;65395;53.168;18.156;2024-01-10T02:20:32;102850.94;;;-4.45;78.52
76553;BME280;65395;53.168;18.156;2024-01-10T02:22:59;102848.20;;;-4.47;78.49
76553;BME280;65395;53.168;18.156;2024-01-10T02:25:26;102849.83;;;-4.43;78.54
76553;BME280;65395;53.168;18.156;2024-01-10T02:27:53;102853.46;;;-4.41;78.61
76553;BME280;65395;53.168;18.156;2024-01-10T02:30:20;102855.12;;;-4.40;78.67
76553;BME280;65395;53.168;18.156;2024-01-10T02:32:47;102853.32;;;-4.40;78.75
76553;BME280;65395;53.168;18.156;2024-01-10T02:35:14;102855.79;;;-4.40;78.86
76553;BME280;65395;53.168;18.156;2024-01-10T02:37:41;102858.61;;;-4.41;78.86
76553;BME280;65395;53.168;18.156;2024-01-10T02:40:08;102864.77;;;-4.41;78.99
76553;BME280;65395;53.168;18.156;2024-01-10T02:42:35;102867.37;;;-4.39;79.02
76553;BME280;65395;53.168;18.156;2024-01-10T02:45:02;102870.70;;;-4.38;78.99
76553;BME280;65395;53.168;18.156;2024-01-10T02:47:29;102868.21;;;-4.35;78.95
76553;BME280;65395;53.168;18.156;2024-01-10T02:49:56;102865.40;;;-4.32;79.05
76553;BME280;65395;53.168;18.156;2024-01-10T02:52:23;102863.02;;;-4.31;79.15
76553;BME280;65395;53.168;18.156;2024-01-10T02:54:50;102865.34;;;-4.28;79.21
76553;BME280;65395;53.168;18.156;2024-01-10T02:57:17;102866.97;;;-4.25;79.28
76553;BME280;65395;53.168;18.156;2024-01-10T02:59:44;102863.20;;;-4.25;79.37
76553;BME280;65395;53.168;18.156;2024-01-10T03:02:11;102854.05;;;-4.25;79.35
76553;BME280;65395;53.168;18.156;2024-01-10T03:04:38;102855.36;;;-4.24;79.64
76553;BME280;65395;53.168;18.156;2024-01-10T03:07:04;102862.75;;;-4.24;79.80
76553;BME280;65395;53.168;18.156;2024-01-10T03:09:31;102862.36;;;-4.21;80.00
76553;BME280;65395;53.168;18.156;2024-01-10T03:11:58;102853.17;;;-4.18;79.89
76553;BME280;65395;53.168;18.156;2024-01-10T03:14:25;102853.41;;;-4.17;79.96
76553;BME280;65395;53.168;18.156;2024-01-10T03:16:52;102853.45;;;-4.16;80.01
76553;BME280;65395;53.168;18.156;2024-01-10T03:19:19;102849.14;;;-4.14;80.07
76553;BME280;65395;53.168;18.156;2024-01-10T03:21:46;102847.45;;;-4.12;80.10
76553;BME280;65395;53.168;18.156;2024-01-10T03:24:13;102851.52;;;-4.10;80.17
76553;BME280;65395;53.168;18.156;2024-01-10T03:26:40;102853.04;;;-4.07;80.16
76553;BME280;65395;53.168;18.156;2024-01-10T03:29:07;102849.16;;;-4.06;80.27
76553;BME280;65395;53.168;18.156;2024-01-10T03:31:34;102844.77;;;-4.05;80.27
76553;BME280;65395;53.168;18.156;2024-01-10T03:34:01;102832.91;;;-4.03;80.46
76553;BME280;65395;53.168;18.156;2024-01-10T03:36:28;102833.23;;;-4.01;80.48
76553;BME280;65395;53.168;18.156;2024-01-10T03:38:55;102830.56;;;-4.00;80.41
76553;BME280;65395;53.168;18.156;2024-01-10T03:41:22;102826.91;;;-3.99;80.60
76553;BME280;65395;53.168;18.156;2024-01-10T03:43:49;102818.94;;;-3.98;80.67
76553;BME280;65395;53.168;18.156;2024-01-10T03:46:17;102816.58;;;-3.97;80.80
76553;BME280;65395;53.168;18.156;2024-01-10T03:48:44;102822.34;;;-3.94;80.86
76553;BME280;65395;53.168;18.156;2024-01-10T03:51:16;102821.86;;;-3.93;80.73
76553;BME280;65395;53.168;18.156;2024-01-10T03:53:45;102817.45;;;-3.92;80.85
76553;BME280;65395;53.168;18.156;2024-01-10T03:56:12;102812.68;;;-3.90;80.87
76553;BME280;65395;53.168;18.156;2024-01-10T03:58:39;102810.66;;;-3.89;80.89
76553;BME280;65395;53.168;18.156;2024-01-10T04:01:08;102811.43;;;-3.88;81.02
76553;BME280;65395;53.168;18.156;2024-01-10T04:03:35;102811.73;;;-3.85;81.01
76553;BME280;65395;53.168;18.156;2024-01-10T04:06:02;102807.30;;;-3.83;81.04
76553;BME280;65395;53.168;18.156;2024-01-10T04:08:29;102807.55;;;-3.82;81.11
76553;BME280;65395;53.168;18.156;2024-01-10T04:10:56;102803.10;;;-3.83;81.33
76553;BME280;65395;53.168;18.156;2024-01-10T04:13:24;102798.27;;;-3.82;81.44
76553;BME280;65395;53.168;18.156;2024-01-10T04:15:51;102803.42;;;-3.82;81.42
76553;BME280;65395;53.168;18.156;2024-01-10T04:18:18;102803.64;;;-3.83;81.43
76553;BME280;65395;53.168;18.156;2024-01-10T04:20:45;102805.94;;;-3.82;81.57
76553;BME280;65395;53.168;18.156;2024-01-10T04:23:11;102806.98;;;-3.80;81.71
76553;BME280;65395;53.168;18.156;2024-01-10T04:25:38;102799.98;;;-3.79;81.71
76553;BME280;65395;53.168;18.156;2024-01-10T04:28:05;102798.28;;;-3.77;81.79
76553;BME280;65395;53.168;18.156;2024-01-10T04:30:32;102794.25;;;-3.76;81.81
76553;BME280;65395;53.168;18.156;2024-01-10T04:32:59;102792.00;;;-3.74;81.90
76553;BME280;65395;53.168;18.156;2024-01-10T04:35:26;102793.27;;;-3.73;81.96
76553;BME280;65395;53.168;18.156;2024-01-10T04:37:53;102792.80;;;-3.71;82.09
76553;BME280;65395;53.168;18.156;2024-01-10T04:40:20;102791.92;;;-3.69;82.19
76553;BME280;65395;53.168;18.156;2024-01-10T04:42:47;102790.25;;;-3.68;82.10
76553;BME280;65395;53.168;18.156;2024-01-10T04:45:14;102789.10;;;-3.69;82.04
76553;BME280;65395;53.168;18.156;2024-01-10T04:47:41;102791.66;;;-3.70;82.04
76553;BME280;65395;53.168;18.156;2024-01-10T04:50:08;102784.98;;;-3.72;81.97
76553;BME280;65395;53.168;18.156;2024-01-10T04:52:35;102784.16;;;-3.75;81.98
76553;BME280;65395;53.168;18.156;2024-01-10T04:55:02;102780.63;;;-3.77;82.02
76553;BME280;65395;53.168;18.156;2024-01-10T04:57:32;102778.92;;;-3.80;82.02
76553;BME280;65395;53.168;18.156;2024-01-10T04:59:59;102781.27;;;-3.82;82.04
76553;BME280;65395;53.168;18.156;2024-01-10T05:02:26;102787.80;;;-3.86;82.10
76553;BME280;65395;53.168;18.156;2024-01-10T05:04:52;102785.73;;;-3.89;82.19
76553;BME280;65395;53.168;18.156;2024-01-10T05:07:19;102787.15;;;-3.91;82.27
76553;BME280;65395;53.168;18.156;2024-01-10T05:09:47;102791.89;;;-3.92;82.25
76553;BME280;65395;53.168;18.156;2024-01-10T05:12:14;102795.17;;;-3.92;82.29
76553;BME280;65395;53.168;18.156;2024-01-10T05:14:40;102792.20;;;-3.92;82.43
76553;BME280;65395;53.168;18.156;2024-01-10T05:17:07;102788.30;;;-3.92;82.38
76553;BME280;65395;53.168;18.156;2024-01-10T05:19:34;102789.29;;;-3.92;82.45
76553;BME280;65395;53.168;18.156;2024-01-10T05:22:01;102791.78;;;-3.91;82.52
76553;BME280;65395;53.168;18.156;2024-01-10T05:24:28;102790.83;;;-3.90;82.49
76553;BME280;65395;53.168;18.156;2024-01-10T05:26:55;102794.31;;;-3.88;82.39
76553;BME280;65395;53.168;18.156;2024-01-10T05:29:22;102793.33;;;-3.89;82.43
76553;BME280;65395;53.168;18.156;2024-01-10T05:31:51;102789.96;;;-3.90;82.46
76553;BME280;65395;53.168;18.156;2024-01-10T05:34:18;102785.75;;;-3.89;82.55
76553;BME280;65395;53.168;18.156;2024-01-10T05:36:45;102778.53;;;-3.90;82.56
76553;BME280;65395;53.168;18.156;2024-01-10T05:39:11;102776.86;;;-3.91;82.57
76553;BME280;65395;53.168;18.156;2024-01-10T05:41:42;102776.95;;;-3.92;82.57
76553;BME280;65395;53.168;18.156;2024-01-10T05:44:10;102778.28;;;-3.94;82.66
76553;BME280;65395;53.168;18.156;2024-01-10T05:46:37;102780.45;;;-3.95;82.67
76553;BME280;65395;53.168;18.156;2024-01-10T05:49:04;102783.38;;;-3.93;82.83
76553;BME280;65395;53.168;18.156;2024-01-10T05:51:31;102781.70;;;-3.91;82.78
76553;BME280;65395;53.168;18.156;2024-01-10T05:53:59;102782.67;;;-3.91;82.91
76553;BME280;65395;53.168;18.156;2024-01-10T05:56:26;102783.83;;;-3.90;82.87
76553;BME280;65395;53.168;18.156;2024-01-10T05:58:53;102779.71;;;-3.90;82.93
76553;BME280;65395;53.168;18.156;2024-01-10T06:01:20;102783.48;;;-3.88;82.99
76553;BME280;65395;53.168;18.156;2024-01-10T06:03:47;102780.02;;;-3.88;83.02
76553;BME280;65395;53.168;18.156;2024-01-10T06:06:14;102781.14;;;-3.87;83.10
76553;BME280;65395;53.168;18.156;2024-01-10T06:08:41;102777.88;;;-3.85;83.12
76553;BME280;65395;53.168;18.156;2024-01-10T06:11:08;102774.73;;;-3.87;83.11
76553;BME280;65395;53.168;18.156;2024-01-10T06:13:36;102779.95;;;-3.85;83.21
76553;BME280;65395;53.168;18.156;2024-01-10T06:16:04;102781.25;;;-3.84;83.31
76553;BME280;65395;53.168;18.156;2024-01-10T06:18:31;102784.73;;;-3.83;83.38
76553;BME280;65395;53.168;18.156;2024-01-10T06:20:58;102786.39;;;-3.80;83.48
76553;BME280;65395;53.168;18.156;2024-01-10T06:23:25;102785.16;;;-3.78;83.45
76553;BME280;65395;53.168;18.156;2024-01-10T06:25:51;102782.33;;;-3.77;83.51
76553;BME280;65395;53.168;18.156;2024-01-10T06:28:21;102783.70;;;-3.73;83.74
76553;BME280;65395;53.168;18.156;2024-01-10T06:30:48;102785.39;;;-3.69;83.55
76553;BME280;65395;53.168;18.156;2024-01-10T06:33:15;102783.63;;;-3.69;83.55
76553;BME280;65395;53.168;18.156;2024-01-10T06:35:42;102780.94;;;-3.68;83.61
76553;BME280;65395;53.168;18.156;2024-01-10T06:38:12;102775.77;;;-3.66;83.77
76553;BME280;65395;53.168;18.156;2024-01-10T06:40:38;102774.78;;;-3.64;83.72
76553;BME280;65395;53.168;18.156;2024-01-10T06:43:07;102772.45;;;-3.63;83.72
76553;BME280;65395;53.168;18.156;2024-01-10T06:45:35;102777.80;;;-3.60;83.88
76553;BME280;65395;53.168;18.156;2024-01-10T06:48:02;102774.40;;;-3.57;83.96
76553;BME280;65395;53.168;18.156;2024-01-10T06:50:29;102772.58;;;-3.53;83.81
76553;BME280;65395;53.168;18.156;2024-01-10T06:52:57;102771.73;;;-3.50;83.91
76553;BME280;65395;53.168;18.156;2024-01-10T06:55:24;102779.48;;;-3.48;83.87
76553;BME280;65395;53.168;18.156;2024-01-10T06:57:51;102778.91;;;-3.48;83.84
76553;BME280;65395;53.168;18.156;2024-01-10T07:00:20;102770.88;;;-3.46;84.00
76553;BME280;65395;53.168;18.156;2024-01-10T07:02:48;102768.38;;;-3.44;84.01
76553;BME280;65395;53.168;18.156;2024-01-10T07:05:15;102769.61;;;-3.40;84.11
76553;BME280;65395;53.168;18.156;2024-01-10T07:07:43;102768.56;;;-3.40;84.03
76553;BME280;65395;53.168;18.156;2024-01-10T07:10:10;102772.30;;;-3.40;84.10
76553;BME280;65395;53.168;18.156;2024-01-10T07:12:37;102771.15;;;-3.37;84.21
76553;BME280;65395;53.168;18.156;2024-01-10T07:15:05;102770.52;;;-3.33;84.15
76553;BME280;65395;53.168;18.156;2024-01-10T07:17:32;102764.73;;;-3.30;84.13
76553;BME280;65395;53.168;18.156;2024-01-10T07:19:59;102763.48;;;-3.26;84.24
76553;BME280;65395;53.168;18.156;2024-01-10T07:22:26;102766.78;;;-3.25;84.12
76553;BME280;65395;53.168;18.156;2024-01-10T07:24:53;102766.95;;;-3.25;84.23
76553;BME280;65395;53.168;18.156;2024-01-10T07:27:20;102771.25;;;-3.23;84.21
76553;BME280;65395;53.168;18.156;2024-01-10T07:29:47;102776.73;;;-3.23;84.33
76553;BME280;65395;53.168;18.156;2024-01-10T07:32:14;102777.45;;;-3.23;84.50
76553;BME280;65395;53.168;18.156;2024-01-10T07:34:41;102775.69;;;-3.21;84.55
76553;BME280;65395;53.168;18.156;2024-01-10T07:37:08;102766.30;;;-3.25;84.48
76553;BME280;65395;53.168;18.156;2024-01-10T07:39:36;102772.77;;;-3.16;84.61
76553;BME280;65395;53.168;18.156;2024-01-10T07:42:03;102771.61;;;-3.12;84.57
76553;BME280;65395;53.168;18.156;2024-01-10T07:44:30;102772.28;;;-3.11;84.64
76553;BME280;65395;53.168;18.156;2024-01-10T07:46:57;102770.99;;;-3.07;84.62
76553;BME280;65395;53.168;18.156;2024-01-10T07:49:24;102773.61;;;-3.04;84.54
76553;BME280;65395;53.168;18.156;2024-01-10T07:51:51;102777.04;;;-3.00;84.58
76553;BME280;65395;53.168;18.156;2024-01-10T07:54:18;102782.98;;;-2.96;84.55
76553;BME280;65395;53.168;18.156;2024-01-10T07:56:45;102783.59;;;-2.92;84.54
76553;BME280;65395;53.168;18.156;2024-01-10T07:59:12;102782.80;;;-2.89;84.54
76553;BME280;65395;53.168;18.156;2024-01-10T08:01:44;102778.29;;;-2.87;84.46
76553;BME280;65395;53.168;18.156;2024-01-10T08:04:22;102782.80;;;-2.84;84.51
76553;BME280;65395;53.168;18.156;2024-01-10T08:06:49;102786.36;;;-2.81;84.56
76553;BME280;65395;53.168;18.156;2024-01-10T08:09:16;102790.92;;;-2.79;84.46
76553;BME280;65395;53.168;18.156;2024-01-10T08:11:43;102795.25;;;-2.75;84.54
76553;BME280;65395;53.168;18.156;2024-01-10T08:14:11;102791.55;;;-2.73;84.52
76553;BME280;65395;53.168;18.156;2024-01-10T08:16:38;102792.55;;;-2.71;84.59
76553;BME280;65395;53.168;18.156;2024-01-10T08:19:05;102789.09;;;-2.69;84.66
76553;BME280;65395;53.168;18.156;2024-01-10T08:21:32;102790.31;;;-2.63;84.63
76553;BME280;65395;53.168;18.156;2024-01-10T08:24:00;102788.05;;;-2.60;84.55
76553;BME280;65395;53.168;18.156;2024-01-10T08:26:28;102789.55;;;-2.56;84.51
76553;BME280;65395;53.168;18.156;2024-01-10T08:28:55;102789.38;;;-2.54;84.50
76553;BME280;65395;53.168;18.156;2024-01-10T08:31:22;102793.05;;;-2.51;84.56
76553;BME280;65395;53.168;18.156;2024-01-10T08:33:50;102796.11;;;-2.49;84.50
76553;BME280;65395;53.168;18.156;2024-01-10T08:36:17;102798.03;;;-2.47;84.45
76553;BME280;65395;53.168;18.156;2024-01-10T08:38:43;102797.98;;;-2.41;84.73
76553;BME280;65395;53.168;18.156;2024-01-10T08:41:11;102799.84;;;-2.36;84.57
76553;BME280;65395;53.168;18.156;2024-01-10T08:43:38;102804.54;;;-2.31;84.55
76553;BME280;65395;53.168;18.156;2024-01-10T08:46:05;102808.42;;;-2.26;84.41
76553;BME280;65395;53.168;18.156;2024-01-10T08:48:33;102795.91;;;-2.29;84.36
76553;BME280;65395;53.168;18.156;2024-01-10T08:51:00;102811.66;;;-2.17;84.40
76553;BME280;65395;53.168;18.156;2024-01-10T08:53:27;102817.17;;;-2.14;84.38
76553;BME280;65395;53.168;18.156;2024-01-10T08:55:54;102819.38;;;-2.10;84.24
76553;BME280;65395;53.168;18.156;2024-01-10T08:58:21;102814.33;;;-2.07;84.20
76553;BME280;65395;53.168;18.156;2024-01-10T09:00:48;102813.69;;;-2.06;84.09
76553;BME280;65395;53.168;18.156;2024-01-10T09:03:15;102817.74;;;-2.05;84.07
76553;BME280;65395;53.168;18.156;2024-01-10T09:05:42;102810.42;;;-2.03;84.15
76553;BME280;65395;53.168;18.156;2024-01-10T09:08:09;102808.63;;;-2.00;84.14
76553;BME280;65395;53.168;18.156;2024-01-10T09:10:38;102804.09;;;-2.00;84.05
76553;BME280;65395;53.168;18.156;2024-01-10T09:13:05;102805.30;;;-1.98;83.81
76553;BME280;65395;53.168;18.156;2024-01-10T09:15:31;102804.77;;;-1.98;83.83
76553;BME280;65395;53.168;18.156;2024-01-10T09:17:59;102797.89;;;-1.96;84.00
76553;BME280;65395;53.168;18.156;2024-01-10T09:20:25;102791.36;;;-1.93;84.03
76553;BME280;65395;53.168;18.156;2024-01-10T09:22:52;102787.39;;;-1.90;84.02
76553;BME280;65395;53.168;18.156;2024-01-10T09:25:19;102786.52;;;-1.88;83.77
76553;BME280;65395;53.168;18.156;2024-01-10T09:27:46;102781.19;;;-1.88;83.80
76553;BME280;65395;53.168;18.156;2024-01-10T09:30:13;102779.88;;;-1.85;83.80
76553;BME280;65395;53.168;18.156;2024-01-10T09:32:43;102783.48;;;-1.82;83.90
76553;BME280;65395;53.168;18.156;2024-01-10T09:35:09;102777.29;;;-1.76;83.91
76553;BME280;65395;53.168;18.156;2024-01-10T09:37:37;102776.02;;;-1.72;83.73
76553;BME280;65395;53.168;18.156;2024-01-10T09:40:06;102771.38;;;-1.71;83.53
76553;BME280;65395;53.168;18.156;2024-01-10T09:42:35;102760.16;;;-1.71;83.56
76553;BME280;65395;53.168;18.156;2024-01-10T09:45:04;102756.83;;;-1.70;83.50
76553;BME280;65395;53.168;18.156;2024-01-10T09:47:32;102752.28;;;-1.68;83.57
76553;BME280;65395;53.168;18.156;2024-01-10T09:49:59;102749.78;;;-1.67;83.50
76553;BME280;65395;53.168;18.156;2024-01-10T09:52:29;102743.23;;;-1.69;83.31
76553;BME280;65395;53.168;18.156;2024-01-10T09:55:01;102745.40;;;-1.65;83.47
76553;BME280;65395;53.168;18.156;2024-01-10T09:57:29;102750.91;;;-1.61;83.35
76553;BME280;65395;53.168;18.156;2024-01-10T09:59:57;102751.40;;;-1.61;83.39
76553;BME280;65395;53.168;18.156;2024-01-10T10:02:25;102749.91;;;-1.62;83.25
76553;BME280;65395;53.168;18.156;2024-01-10T10:05:04;102738.01;;;-1.68;83.38
76553;BME280;65395;53.168;18.156;2024-01-10T10:07:47;102746.15;;;-1.63;83.45
76553;BME280;65395;53.168;18.156;2024-01-10T10:10:16;102749.05;;;-1.62;83.43
76553;BME280;65395;53.168;18.156;2024-01-10T10:12:48;102751.90;;;-1.61;83.56
76553;BME280;65395;53.168;18.156;2024-01-10T10:15:17;102753.35;;;-1.58;83.52
76553;BME280;65395;53.168;18.156;2024-01-10T10:17:46;102750.05;;;-1.51;83.74
76553;BME280;65395;53.168;18.156;2024-01-10T10:20:24;102755.56;;;-1.42;83.56
76553;BME280;65395;53.168;18.156;2024-01-10T10:23:02;102757.59;;;-1.37;83.34
76553;BME280;65395;53.168;18.156;2024-01-10T10:25:32;102754.70;;;-1.39;83.26
76553;BME280;65395;53.168;18.156;2024-01-10T10:28:00;102761.49;;;-1.38;82.95
76553;BME280;65395;53.168;18.156;2024-01-10T10:30:28;102760.60;;;-1.41;83.13
76553;BME280;65395;53.168;18.156;2024-01-10T10:32:56;102759.40;;;-1.43;83.18
76553;BME280;65395;53.168;18.156;2024-01-10T10:35:23;102763.02;;;-1.45;83.34
76553;BME280;65395;53.168;18.156;2024-01-10T10:37:52;102758.62;;;-1.44;83.33
76553;BME280;65395;53.168;18.156;2024-01-10T10:40:21;102762.66;;;-1.43;83.25
76553;BME280;65395;53.168;18.156;2024-01-10T10:42:49;102759.04;;;-1.41;83.44
76553;BME280;65395;53.168;18.156;2024-01-10T10:45:21;102757.23;;;-1.37;83.31
76553;BME280;65395;53.168;18.156;2024-01-10T10:47:58;102758.96;;;-1.39;83.09
76553;BME280;65395;53.168;18.156;2024-01-10T10:50:31;102757.04;;;-1.37;83.35
76553;BME280;65395;53.168;18.156;2024-01-10T10:53:02;102754.29;;;-1.37;83.23
76553;BME280;65395;53.168;18.156;2024-01-10T10:55:31;102747.58;;;-1.44;83.20
76553;BME280;65395;53.168;18.156;2024-01-10T10:58:01;102748.75;;;-1.45;83.23
76553;BME280;65395;53.168;18.156;2024-01-10T11:00:32;102746.41;;;-1.49;83.42
76553;BME280;65395;53.168;18.156;2024-01-10T11:03:02;102744.35;;;-1.49;83.52
76553;BME280;65395;53.168;18.156;2024-01-10T11:05:31;102743.16;;;-1.47;83.62
76553;BME280;65395;53.168;18.156;2024-01-10T11:08:02;102738.30;;;-1.46;83.41
76553;BME280;65395;53.168;18.156;2024-01-10T11:10:32;102732.58;;;-1.42;83.55
76553;BME280;65395;53.168;18.156;2024-01-10T11:13:23;102730.91;;;-1.37;83.54
76553;BME280;65395;53.168;18.156;2024-01-10T11:19:05;102725.52;;;-1.34;83.52
76553;BME280;65395;53.168;18.156;2024-01-10T11:24:24;102721.42;;;-1.36;83.44
76553;BME280;65395;53.168;18.156;2024-01-10T11:27:06;102720.37;;;-1.37;83.31
76553;BME280;65395;53.168;18.156;2024-01-10T11:29:37;102724.33;;;-1.35;83.51
76553;BME280;65395;53.168;18.156;2024-01-10T11:32:07;102723.30;;;-1.34;83.57
76553;BME280;65395;53.168;18.156;2024-01-10T11:34:57;102727.34;;;-1.35;83.36
76553;BME280;65395;53.168;18.156;2024-01-10T11:37:38;102722.78;;;-1.41;83.41
76553;BME280;65395;53.168;18.156;2024-01-10T11:40:08;102718.13;;;-1.41;83.66
76553;BME280;65395;53.168;18.156;2024-01-10T11:42:45;102715.46;;;-1.36;83.62
76553;BME280;65395;53.168;18.156;2024-01-10T11:45:36;102711.88;;;-1.37;83.61
76553;BME280;65395;53.168;18.156;2024-01-10T11:48:03;102708.79;;;-1.35;83.66
76553;BME280;65395;53.168;18.156;2024-01-10T11:50:31;102706.04;;;-1.32;83.57
76553;BME280;65395;53.168;18.156;2024-01-10T11:52:58;102702.45;;;-1.29;83.62
76553;BME280;65395;53.168;18.156;2024-01-10T11:58:12;102705.39;;;-1.24;83.55
76553;BME280;65395;53.168;18.156;2024-01-10T12:00:40;102704.30;;;-1.29;83.44
76553;BME280;65395;53.168;18.156;2024-01-10T12:03:11;102707.13;;;-1.33;83.44
76553;BME280;65395;53.168;18.156;2024-01-10T12:05:39;102708.19;;;-1.36;83.62
76553;BME280;65395;53.168;18.156;2024-01-10T12:08:08;102704.73;;;-1.39;83.69
76553;BME280;65395;53.168;18.156;2024-01-10T12:10:46;102700.31;;;-1.39;83.66
76553;BME280;65395;53.168;18.156;2024-01-10T12:13:14;102695.33;;;-1.39;83.71
76553;BME280;65395;53.168;18.156;2024-01-10T12:15:42;102699.06;;;-1.39;83.75
76553;BME280;65395;53.168;18.156;2024-01-10T12:18:09;102699.18;;;-1.41;83.77
76553;BME280;65395;53.168;18.156;2024-01-10T12:20:38;102701.88;;;-1.47;83.72
76553;BME280;65395;53.168;18.156;2024-01-10T12:23:05;102702.73;;;-1.52;83.91
76553;BME280;65395;53.168;18.156;2024-01-10T12:25:33;102699.25;;;-1.57;84.19
76553;BME280;65395;53.168;18.156;2024-01-10T12:28:02;102699.68;;;-1.61;84.30
76553;BME280;65395;53.168;18.156;2024-01-10T12:30:31;102704.26;;;-1.65;84.36
76553;BME280;65395;53.168;18.156;2024-01-10T12:33:00;102696.34;;;-1.69;84.32
76553;BME280;65395;53.168;18.156;2024-01-10T12:35:28;102695.08;;;-1.68;84.48
76553;BME280;65395;53.168;18.156;2024-01-10T12:37:56;102692.56;;;-1.69;84.45
76553;BME280;65395;53.168;18.156;2024-01-10T12:40:23;102688.80;;;-1.66;84.42
76553;BME280;65395;53.168;18.156;2024-01-10T12:43:07;102688.27;;;-1.62;84.52
76553;BME280;65395;53.168;18.156;2024-01-10T12:45:36;102687.98;;;-1.61;84.17
76553;BME280;65395;53.168;18.156;2024-01-10T12:48:04;102683.55;;;-1.62;84.08
76553;BME280;65395;53.168;18.156;2024-01-10T12:50:32;102682.48;;;-1.65;84.21
76553;BME280;65395;53.168;18.156;2024-01-10T12:52:59;102684.55;;;-1.66;84.14